CheckWX is a tool to help pilots better visualize weather data.  It is not intended as a substitute for an official pre-flight weather briefing.

15:53:49 UTC

EPGD TAF
Gdańsk Lech Wałęsa Airport
Gdańsk, Poland
TAF EPGD 221130Z 2212/2312 VRB05KT CAVOK BECMG 2218/2221 19010KT

Aug-22@
12:00 UTC

Aug-22 @ 12:00 UTC

Aug-22@
18:00 UTC

Aug-22 @ 18:00 UTC

TAF EPGD 221130Z 2212/2312 VRB05KT CAVOK
Wind
  • Variable at 5 KTS
Conditions
No significant weather
Cloud Levels
  • No significant clouds

Aug-22@
18:00 UTC

Aug-22 @ 18:00 UTC

Aug-23@
12:00 UTC

Aug-23 @ 12:00 UTC

BECMG 2218/2221 19010KT

Becoming

Becoming Conditions expected by Thu, Aug 22, 2019 @ 21:00 UTC

Wind
  • 190° at 10 KTS
Conditions
No significant weather
Cloud Levels
  • No significant clouds